Sonic Adventure (DX): Time Rankings

Records: Times | Rings | Scores | Races | Bosses | Freestyle
Leaders: Times | Rings | Scores | Races | Bosses | Freestyle | Overall
Rank Player Percent Points Date
1 Gamepro011 99.6% 18 04-25-17
2 Sonicspeedruner 98.7% 67 04-25-17
3 Dashjump 95.3% 262 04-25-17
4 Jawzun 95.2% 263 04-25-17
5 DarkPolarNight 93.5% 357 04-25-17
6 drminus 92.3% 428 04-25-17
7 F-Man 92.1% 439 04-25-17
8 THC98 91.8% 457 04-25-17
9 ike6252 89.7% 570 04-25-17
10 Avento128bits 89.3% 592 04-25-17
11 francisco 89.1% 606 04-25-17
12 DarkspinesSonic 88.5% 640 04-25-17
13 Marth 88.4% 644 04-25-17
14 ethmar 88.4% 646 04-25-17
15 frankoredstrato 87.2% 713 04-25-17
16 TheRealShadnic 84.7% 849 04-25-17
17 chainchumper 84.6% 855 04-25-17
18 Paragod 84.4% 868 04-25-17
19 HyperSonic7701 84.1% 884 04-25-17
20 xXMegaManXx 81.2% 1047 04-25-17
21 InferSaime 81.1% 1049 04-25-17
22 Coolfansonic 80.3% 1093 04-25-17
23 Stefan 79.6% 1132 04-25-17
24 PfoSonic 79.2% 1157 04-25-17
25 bertin 77.4% 1257 04-25-17
26 yoshifan 76.8% 1289 04-25-17
27 Dave Cramer 75.3% 1377 04-25-17
28 RPGnutter 75.0% 1392 04-25-17
29 sonicam 73.4% 1481 04-25-17
30 Cybrax 73.2% 1493 04-25-17
31 Ring Rush 70.7% 1632 04-25-17
32 mike89 69.9% 1678 04-25-17
33 NintenDan 69.6% 1694 04-25-17
34 a_moustache 68.0% 1779 04-25-17
35 Nimrod 67.9% 1788 04-25-17
36 SkyLights 66.1% 1889 04-25-17
37 chaos shadow 64.8% 1961 04-25-17
38 Combo 64.6% 1968 04-25-17
39 SADXTryHard 62.6% 2083 04-25-17
40 P1 Pause 61.9% 2124 04-25-17
41 Groudon199 60.0% 2229 04-25-17
42 Shadow Jacky 59.3% 2267 04-25-17
43 Game_Complete 59.1% 2275 04-25-17
44 AxlThunder 58.5% 2311 04-25-17
45 VMU Player Banned 58.0% 2337 04-25-17
46 Thorn 58.0% 2338 04-25-17
47 SB737 57.0% 2396 04-25-17
48 The Knuckles Chao 56.9% 2399 04-25-17
49 Chao_Fan 56.5% 2423 04-25-17
50 SadisticMystic 56.4% 2429 04-25-17
51 Mastakirby 56.0% 2452 04-25-17
52 Parax 55.6% 2471 04-25-17
53 OmegaDJ 55.4% 2483 04-25-17
54 KinkyCadence 55.0% 2504 04-25-17
55 LittleBigness 54.9% 2510 04-25-17
56 Auriman1 54.9% 2514 04-25-17
57 mauserman 54.8% 2516 04-25-17
58 Psyknux 54.7% 2522 04-25-17
59 magnum12 54.7% 2525 04-25-17
60 Turbos 54.4% 2542 04-25-17
61 GerbilSoft 53.8% 2573 04-25-17
62 GreatStar 53.4% 2593 04-25-17
63 Webber3000 53.1% 2611 04-25-17
64 Hipertails12 51.5% 2702 04-25-17
65 James_Bertolli 49.9% 2792 04-25-17
66 Cream147 49.5% 2810 04-25-17
67 welldooder64 48.8% 2852 04-25-17
68 Skylace 48.6% 2860 04-25-17
69 Quartz 48.5% 2870 04-25-17
70 Psymar 48.2% 2885 04-25-17
71 Omega Rafael Santos 48.0% 2896 04-25-17
72 Diamond 47.8% 2905 04-25-17
73 teamblackarms 47.2% 2943 04-25-17
74 SonicWinDX 46.9% 2960 04-25-17
75 Andrea Ritsu 46.5% 2981 04-25-17
76 buddychaos0415 46.0% 3005 04-25-17
77 SilverSonic 45.2% 3050 04-25-17
78 SilvertheAlmighty 44.9% 3069 04-25-17
79 metanightmare22 44.3% 3104 04-25-17
80 itsPersonnal 44.1% 3114 04-25-17
81 WeegeeZV 44.1% 3115 04-25-17
82 lordmetalsonic 42.1% 3224 04-25-17
83 Arch 41.7% 3250 04-25-17
84 videogamemaster777 40.8% 3298 04-25-17
85 supersonicfan 40.4% 3322 04-25-17
86 Termon 40.3% 3327 04-25-17
87 LilZero 39.6% 3364 04-25-17
88 paulie9990 39.4% 3378 04-25-17
89 Drakodan 39.3% 3382 04-25-17
90 supersonic465 39.2% 3385 04-25-17
91 FuzZerd 39.1% 3391 04-25-17
92 Kanimayo_Jp 39.0% 3398 04-25-17
93 eggFL 38.7% 3414 04-25-17
94 danieldude 37.7% 3468 04-25-17
95 Don 37.2% 3497 04-25-17
96 Siavash Tazari 37.1% 3505 04-25-17
97 Fr3nZy 36.2% 3552 04-25-17
98 f0rever_zer0 36.1% 3558 04-25-17
99 Cyan Ryan 35.5% 3592 04-25-17
100 LinksDarkArrows 35.2% 3611 04-25-17
101 Cod4Scopes 35.2% 3612 04-25-17
102 BigAL49 34.6% 3646 04-25-17
103 elecmouse101 34.3% 3662 04-25-17
104 Therio 34.1% 3669 04-25-17
105 Staf 34.0% 3677 04-25-17
106 Austinf 33.9% 3685 04-25-17
107 MiStEr_ShAoLiN 33.7% 3696 04-25-17
108 Twilisailor 33.2% 3719 04-25-17
109 videogamer1014 32.8% 3742 04-25-17
110 Xia 32.4% 3766 04-25-17
111 BrokenArthritis 32.3% 3771 04-25-17
112 AC-Tygo 32.2% 3775 04-25-17
113 N 32.1% 3784 04-25-17
114 welshmoose05 31.9% 3792 04-25-17
115 OddCook 31.5% 3818 04-25-17
116 The Great Lord Mick 31.2% 3835 04-25-17
117 Aitamen 30.6% 3864 04-25-17
118 Matt_TY 30.3% 3882 04-25-17
119 dabestgamer 30.1% 3895 04-25-17
120 Maxinfamily 30.1% 3896 04-25-17
121 Mcshuggets 30.0% 3902 04-25-17
122 joecoolgames 29.3% 3938 04-25-17
123 SuperBlitzCraig 28.8% 3964 04-25-17
124 imazor017 28.7% 3971 04-25-17
125 Shadowthegreat 28.6% 3976 04-25-17
126 superjupi 28.5% 3981 04-25-17
127 Rolken 28.2% 4000 04-25-17
128 SuperSonic101 28.1% 4005 04-25-17
129 sonamyfan666 27.7% 4030 04-25-17
130 thewaytodawnnn 27.4% 4045 04-25-17
131 Spinballwizard 27.3% 4051 04-25-17
132 koinu93 27.3% 4053 04-25-17
133 SonicKnuckles 27.2% 4056 04-25-17
134 iarebored 27.0% 4066 04-25-17
135 Hunters13 27.0% 4069 04-25-17
136 SaviourDC 26.6% 4090 04-25-17
137 EngiNerd 26.2% 4109 04-25-17
138 adf 26.0% 4125 04-25-17
139 Megaman EXE565 25.3% 4159 04-25-17
140 The T 25.1% 4171 04-25-17
141 Sonic Singularity 24.5% 4204 04-25-17
142 timpkmn89 23.8% 4244 04-25-17
143 Platformer 23.7% 4252 04-25-17
144 Pokemonmaster888 23.5% 4262 04-25-17
144 SeaWolf 23.5% 4262 04-25-17
146 Sondow 23.0% 4289 04-25-17
147 Swift Hobo 22.8% 4301 04-25-17
148 KitsuneYamaro 22.3% 4327 04-25-17
149 Rickyman48 22.1% 4341 04-25-17
150 FoxBoy 21.9% 4351 04-25-17
151 Kogen Player Banned 21.4% 4377 04-25-17
152 TFEC Headshot 21.1% 4396 04-25-17
153 Jerzia 21.0% 4403 04-25-17
154 HyperSonic64 20.3% 4441 04-25-17
155 Starlight Sable 20.1% 4452 04-25-17
156 andres430 19.8% 4469 04-25-17
157 IsisDazs 19.7% 4475 04-25-17
158 crazy1993 19.6% 4482 04-25-17
159 Powerjohn25 19.4% 4493 04-25-17
160 SonicU260 18.7% 4527 04-25-17
161 MPit08 18.4% 4549 04-25-17
162 SonicAD 18.0% 4570 04-25-17
163 iSonicKid2K 17.7% 4585 04-25-17
164 dShadow 17.6% 4591 04-25-17
164 Swinkly 17.6% 4591 04-25-17
166 sonicd5 17.3% 4607 04-25-17
167 Cutiefox 17.0% 4627 04-25-17
168 Chawkk 16.8% 4636 04-25-17
169 JamminX42 16.7% 4641 04-25-17
170 Monkeh 16.6% 4645 04-25-17
171 Miles9999 16.1% 4677 04-25-17
172 Bass 15.6% 4704 04-25-17
172 DaDude 15.6% 4704 04-25-17
174 Drflash55 15.5% 4709 04-25-17
175 Cruizer 15.4% 4716 04-25-17
176 Destroyer121121 15.3% 4718 04-25-17
177 Badlex727 14.9% 4742 04-25-17
177 superiorsonic 14.9% 4742 04-25-17
179 neaolas 14.7% 4752 04-25-17
180 zapp 14.7% 4753 04-25-17
181 Yish 14.5% 4763 04-25-17
182 UninspiredUsername 14.3% 4774 04-25-17
183 Cooljay 14.1% 4784 04-25-17
184 gamefreak1292 14.0% 4793 04-25-17
185 Chaos_Overlord 13.1% 4840 04-25-17
186 GarnetPrincess 13.1% 4843 04-25-17
187 Valfore 12.5% 4874 04-25-17
188 soniccoloursunleashed 12.2% 4890 04-25-17
189 booo95 11.9% 4911 04-25-17
189 ShinigamiMachine 11.9% 4911 04-25-17
191 Sonicsuperstar1 11.5% 4933 04-25-17
192 sonicspeed 11.3% 4940 04-25-17
193 SirTobbii 11.3% 4945 04-25-17
194 Werey 11.0% 4958 04-25-17
195 FocusSight64 11.0% 4960 04-25-17
196 Mo Player Banned 10.9% 4964 04-25-17
197 Sithwarrior26 9.7% 5031 04-25-17
198 Venick409 9.7% 5032 04-25-17
199 nman36 9.7% 5034 04-25-17
200 dekki1234 9.3% 5054 04-25-17
201 ingx24 9.2% 5061 04-25-17
202 CyberShadow 9.1% 5064 04-25-17
203 Colomb_30 8.9% 5075 04-25-17
204 Fozer 8.9% 5076 04-25-17
205 Egor305 8.6% 5090 04-25-17
206 Regano1000 8.5% 5100 04-25-17
207 douglas 8.4% 5105 04-25-17
208 1stKirbyever 8.2% 5116 04-25-17
209 nuckrieg 8.1% 5119 04-25-17
210 TimTH 7.9% 5133 04-25-17
211 wheatrich 7.8% 5135 04-25-17
212 Brian_pso 7.8% 5140 04-25-17
213 Zip 7.7% 5141 04-25-17
214 Th4tN1nj4Turtl3 7.5% 5152 04-25-17
215 TakaRikka 7.5% 5155 04-25-17
216 niscool 7.4% 5160 04-25-17
217 Mariosonic15 7.2% 5172 04-25-17
218 Triseena 7.0% 5182 04-25-17
219 ieatatsonic 6.9% 5188 04-25-17
220 HermitHelmet 6.7% 5198 04-25-17
220 MStitomix 6.7% 5198 04-25-17
222 Artie 6.6% 5207 04-25-17
223 Got4n 6.4% 5215 04-25-17
224 Cort_pso 6.3% 5220 04-25-17
225 BlankTH 6.2% 5224 04-25-17
226 Jose_15 6.1% 5234 04-25-17
227 Richied 5.9% 5243 04-25-17
228 SuperSonicfan9595 5.8% 5249 04-25-17
229 Ace747 5.7% 5257 04-25-17
230 HHNNBBHHN 5.5% 5267 04-25-17
231 Aiko 5.4% 5271 04-25-17
232 Paixii 5.3% 5277 04-25-17
233 slade23 5.2% 5283 04-25-17
234 Mankster101 5.0% 5291 04-25-17
235 BallzeH 5.0% 5293 04-25-17
236 BecauseWarAnvil 5.0% 5296 04-25-17
237 FSSRandomvids 4.9% 5300 04-25-17
238 ArcticDragon 4.9% 5301 04-25-17
239 PsyBorg 4.8% 5302 04-25-17
240 Jamixesa 4.8% 5304 04-25-17
241 Nickson98 4.7% 5308 04-25-17
242 Crydio 4.6% 5317 04-25-17
243 TheUltraBlur 4.5% 5322 04-25-17
244 ALundstrom10 4.4% 5328 04-25-17
245 tal39h 4.4% 5329 04-25-17
246 MarewBFN 4.3% 5331 04-25-17
247 stanski 4.2% 5337 04-25-17
248 knuckles_sonic8 4.0% 5349 04-25-17
249 p0ker 4.0% 5350 04-25-17
250 Blue Infamy 3.9% 5353 04-25-17
251 ErrortheCucco 3.7% 5364 04-25-17
252 Rikum22 3.7% 5367 04-25-17
253 sonic1001 3.5% 5375 04-25-17
253 TheChaosEmeraIds 3.5% 5375 04-25-17
255 AJSIV 3.4% 5381 04-25-17
256 syco1098 3.4% 5382 04-25-17
257 Sonic the Hedgehod16 3.4% 5385 04-25-17
258 ASINISTERTACO 3.2% 5393 04-25-17
259 Calfd 3.2% 5396 04-25-17
259 sonicfan9 3.2% 5396 04-25-17
261 MK 3.1% 5401 04-25-17
262 themachoman202 3.0% 5406 04-25-17
263 Fivavoa 2.8% 5417 04-25-17
263 Mr. Jones 2.8% 5417 04-25-17
265 djmat 2.7% 5419 04-25-17
266 arcfx1985 2.7% 5420 04-25-17
267 BlackArmsShadow 2.7% 5421 04-25-17
268 ptorflaxendrosis 2.7% 5423 04-25-17
268 Sonique Hedgehog 2.7% 5423 04-25-17
270 FlandreScarlet9999vr 2.6% 5429 04-25-17
271 Zeldocto 2.6% 5430 04-25-17
272 BeeAwwb 2.5% 5434 04-25-17
272 KaM Mark MaK 2.5% 5434 04-25-17
274 darkstarblaze 2.3% 5442 04-25-17
274 ShadouZaHejjihoggu 2.3% 5442 04-25-17
276 Sarger001 2.3% 5444 04-25-17
277 Sonic The Star 2.2% 5449 04-25-17
278 darkersupershadic 2.2% 5450 04-25-17
279 SpiritDragon1995 2.2% 5451 04-25-17
280 BioShadow 2.1% 5455 04-25-17
281 Grady219 2.1% 5457 04-25-17
281 sonic29887 2.1% 5457 04-25-17
283 shadowblast63 Player Banned 2.0% 5461 04-25-17
284 Jawaah 1.9% 5464 04-25-17
285 Antek 1.9% 5466 04-25-17
286 Klaus 1.9% 5468 04-25-17
287 SkyBon 1.8% 5472 04-25-17
288 Shanekilz 1.5% 5490 04-25-17
289 isaihtb11 1.4% 5494 04-25-17
290 zaktu40 1.4% 5496 04-25-17
291 OhNoes! 1.3% 5497 04-25-17
292 gaara1234 1.3% 5499 04-25-17
293 S-MS32X-S 1.2% 5503 04-25-17
294 MastaToken 1.2% 5506 04-25-17
295 Mister_Slick 1.1% 5512 04-25-17
296 Rush Hero 1.0% 5515 04-25-17
296 Sonic06Fan 1.0% 5515 04-25-17
298 SonicMega167 0.9% 5520 04-25-17
299 gamed00d 0.9% 5523 04-25-17
300 oTaiIilLsS 0.9% 5524 04-25-17
300 SilverK 0.9% 5524 04-25-17
302 Heroes_Hater 0.7% 5531 04-25-17
303 Redd 0.7% 5534 04-25-17
304 Burningskull123 0.6% 5539 04-25-17
305 Sonicontherun 0.4% 5552 04-25-17
306 antiwwe 0.3% 5557 04-25-17
307 Genuine Hedgehog 0.2% 5560 04-25-17
307 Iwannabelink 0.2% 5560 04-25-17
307 SonataSpinDash 0.2% 5560 04-25-17
310 dragondragon18 0.1% 5564 04-25-17
311 SonicK100 0.1% 5567 04-25-17
312 Tyrouble 0.0% 5571 04-25-17
313 ReuelBrony 0.0% 5572 04-25-17
314 LancexExWx 0.0% 5575 04-25-17
314 neji_hyuuga 0.0% 5575 04-25-17
314 Over 0.0% 5575 04-25-17
314 sdj6707 Player Banned 0.0% 5575 04-25-17
314 Tran Sonic Fan Player Banned 0.0% 5575 04-25-17

This page is using the New Data Table System. [FUTURE]

Game ID: 3 | Category ID: 1
Hits: 8,518 | Hits This Month: 40 | DB Calls: 24 | Mem Usage: 5.47 MB | Time: 0.17s | Printable

The Sonic Center v3.9
Copyright 2003-2011 by The Sonic Center Team.